createdAt,value
2019-03-23T00:01:09.360Z,8.13
2019-03-23T00:06:05.292Z,7.79
2019-03-23T00:11:01.219Z,7.66
2019-03-23T00:15:57.237Z,7.49
2019-03-23T00:20:53.160Z,7.33
2019-03-23T00:25:49.088Z,7.30
2019-03-23T00:30:44.983Z,7.96
2019-03-23T00:35:41.016Z,7.36
2019-03-23T00:40:36.947Z,7.30
2019-03-23T00:45:32.965Z,7.12
2019-03-23T00:50:28.894Z,6.99
2019-03-23T00:55:24.846Z,7.42
2019-03-23T01:00:20.878Z,7.19
2019-03-23T01:05:16.803Z,7.50
2019-03-23T01:10:13.065Z,7.11
2019-03-23T01:15:12.471Z,6.96
2019-03-23T01:20:12.135Z,7.39
2019-03-23T01:25:09.016Z,7.83
2019-03-23T01:30:10.758Z,7.55
2019-03-23T01:35:07.279Z,7.13
2019-03-23T01:40:05.011Z,7.65
2019-03-23T01:45:01.121Z,7.69
2019-03-23T01:49:57.042Z,7.30
2019-03-23T01:54:52.956Z,7.36
2019-03-23T01:59:48.884Z,7.43
2019-03-23T02:04:44.885Z,6.99
2019-03-23T02:09:40.809Z,6.54
2019-03-23T02:14:36.736Z,6.38
2019-03-23T02:19:32.664Z,6.37
2019-03-23T02:24:29.299Z,6.40
2019-03-23T02:29:25.186Z,6.94
2019-03-23T02:34:21.111Z,6.94
2019-03-23T02:39:17.032Z,6.95
2019-03-23T02:44:12.965Z,6.72
2019-03-23T02:49:08.895Z,6.84
2019-03-23T02:54:11.101Z,6.60
2019-03-23T02:59:07.127Z,6.60
2019-03-23T03:04:03.167Z,6.49
2019-03-23T03:08:59.086Z,6.21
2019-03-23T03:13:55.006Z,6.52
2019-03-23T03:18:50.924Z,6.21
2019-03-23T03:23:48.520Z,6.06
2019-03-23T03:28:44.546Z,5.75
2019-03-23T03:33:40.485Z,6.40
2019-03-23T03:38:36.420Z,6.29
2019-03-23T03:43:32.352Z,5.94
2019-03-23T03:48:28.290Z,5.68
2019-03-23T03:53:24.235Z,5.53
2019-03-23T03:58:20.181Z,5.53
2019-03-23T04:03:16.105Z,5.42
2019-03-23T04:08:12.350Z,5.42
2019-03-23T04:13:08.353Z,6.05
2019-03-23T04:18:04.333Z,6.04
2019-03-23T04:23:00.265Z,6.10
2019-03-23T04:27:56.210Z,5.86
2019-03-23T04:32:52.126Z,5.58
2019-03-23T04:37:48.161Z,5.59
2019-03-23T04:42:44.079Z,6.10
2019-03-23T04:47:40.134Z,6.15
2019-03-23T04:52:36.156Z,6.15
2019-03-23T04:57:32.092Z,6.30
2019-03-23T05:02:28.081Z,6.42
2019-03-23T05:07:24.004Z,6.50
2019-03-23T05:12:19.947Z,6.55
2019-03-23T05:17:15.867Z,6.63
2019-03-23T05:22:11.766Z,6.68
2019-03-23T05:27:07.691Z,6.72
2019-03-23T05:32:03.739Z,6.83
2019-03-23T05:36:59.677Z,6.74
2019-03-23T05:41:55.595Z,6.68
2019-03-23T05:46:51.524Z,6.86
2019-03-23T05:51:47.440Z,6.66
2019-03-23T05:56:43.444Z,6.52
2019-03-23T06:01:39.359Z,6.52
2019-03-23T06:06:35.267Z,6.55
2019-03-23T06:11:31.198Z,6.77
2019-03-23T06:16:27.115Z,6.85
2019-03-23T06:21:23.196Z,6.73
2019-03-23T06:26:19.110Z,6.71
2019-03-23T06:31:15.069Z,6.52
2019-03-23T06:36:10.995Z,6.46
2019-03-23T06:41:06.932Z,6.33
2019-03-23T06:46:02.913Z,6.30
2019-03-23T06:50:58.843Z,6.24
2019-03-23T06:55:54.762Z,6.29
2019-03-23T07:00:50.708Z,6.32
2019-03-23T07:05:46.748Z,6.21
2019-03-23T07:10:42.665Z,6.25
2019-03-23T07:15:38.582Z,6.28
2019-03-23T07:20:34.494Z,6.34
2019-03-23T07:25:30.417Z,6.19
2019-03-23T07:30:26.342Z,6.09
2019-03-23T07:35:22.256Z,6.09
2019-03-23T07:40:18.189Z,6.04
2019-03-23T07:45:14.801Z,5.97
2019-03-23T07:50:12.026Z,5.98
2019-03-23T07:55:12.517Z,6.12
2019-03-23T08:00:11.568Z,6.09
2019-03-23T08:05:07.650Z,6.20
2019-03-23T08:10:04.627Z,6.23
2019-03-23T08:15:04.582Z,6.29
2019-03-23T08:20:00.512Z,6.30
2019-03-23T08:25:00.135Z,6.47
2019-03-23T08:29:56.218Z,6.37
2019-03-23T08:34:52.130Z,6.42
2019-03-23T08:39:48.976Z,6.79
2019-03-23T08:44:44.880Z,6.82
2019-03-23T08:49:40.830Z,7.25
2019-03-23T08:54:37.637Z,7.23
2019-03-23T08:59:33.553Z,7.05
2019-03-23T09:04:29.471Z,7.17
2019-03-23T09:09:25.502Z,7.43
2019-03-23T09:14:23.461Z,7.61
2019-03-23T09:19:19.255Z,7.55
2019-03-23T09:24:21.206Z,7.67
2019-03-23T09:29:17.248Z,7.66
2019-03-23T09:34:13.160Z,7.87
2019-03-23T09:39:09.105Z,7.74
2019-03-23T09:44:05.021Z,7.79
2019-03-23T09:49:01.056Z,8.02
2019-03-23T09:53:57.020Z,8.13
2019-03-23T09:58:54.829Z,8.27
2019-03-23T10:03:50.844Z,8.32
2019-03-23T10:08:46.762Z,8.23
2019-03-23T10:13:45.017Z,8.49
2019-03-23T10:18:40.932Z,8.59
2019-03-23T10:23:43.631Z,8.91
2019-03-23T10:28:39.649Z,9.37
2019-03-23T10:33:35.574Z,9.57
2019-03-23T10:38:31.549Z,9.25
2019-03-23T10:43:27.463Z,9.43
2019-03-23T10:48:24.434Z,9.30
2019-03-23T10:53:23.182Z,9.73
2019-03-23T10:58:18.300Z,9.54
2019-03-23T11:03:14.298Z,9.77
2019-03-23T11:08:14.989Z,9.71
2019-03-23T11:13:11.535Z,9.55
2019-03-23T11:18:08.435Z,9.94
2019-03-23T11:23:06.802Z,9.76
2019-03-23T11:28:03.029Z,9.95
2019-03-23T11:32:59.374Z,10.18
2019-03-23T11:37:56.020Z,10.15
2019-03-23T11:42:56.707Z,10.36
2019-03-23T11:47:54.892Z,10.47
2019-03-23T11:52:50.824Z,11.07
2019-03-23T11:57:48.035Z,11.35
2019-03-23T12:02:43.959Z,11.52
2019-03-23T12:07:39.894Z,11.22
2019-03-23T12:12:36.691Z,12.45
2019-03-23T12:17:35.789Z,11.05
2019-03-23T12:22:33.359Z,10.94
2019-03-23T12:27:31.636Z,12.50
2019-03-23T12:32:28.696Z,12.13
2019-03-23T12:37:24.656Z,12.54
2019-03-23T12:42:20.560Z,12.23
2019-03-23T12:47:16.481Z,13.01
2019-03-23T12:52:12.491Z,13.73
2019-03-23T12:57:08.429Z,11.75
2019-03-23T13:02:04.488Z,12.15
2019-03-23T13:07:00.509Z,12.29
2019-03-23T13:11:56.424Z,12.42
2019-03-23T13:16:52.396Z,12.24
2019-03-23T13:21:49.324Z,12.46
2019-03-23T13:26:45.348Z,12.16
2019-03-23T13:31:41.275Z,12.65
2019-03-23T13:36:37.188Z,12.03
2019-03-23T13:41:33.109Z,12.37
2019-03-23T13:46:29.035Z,12.21
2019-03-23T13:51:25.058Z,12.50
2019-03-23T13:56:21.053Z,12.55
2019-03-23T14:01:16.989Z,12.03
2019-03-23T14:06:13.006Z,12.36
2019-03-23T14:11:08.934Z,12.45
2019-03-23T14:16:04.911Z,12.16
2019-03-23T14:21:00.817Z,11.95
2019-03-23T14:25:56.741Z,12.23
2019-03-23T14:30:52.702Z,12.29
2019-03-23T14:35:48.639Z,12.49
2019-03-23T14:40:44.564Z,12.30
2019-03-23T14:45:40.614Z,12.05
2019-03-23T14:50:36.674Z,11.99
2019-03-23T14:55:32.740Z,12.09
2019-03-23T15:00:30.480Z,12.03
2019-03-23T15:05:26.448Z,12.15
2019-03-23T15:10:22.502Z,12.07
2019-03-23T15:15:18.478Z,12.04
2019-03-23T15:20:14.452Z,12.27
2019-03-23T15:25:10.671Z,11.99
2019-03-23T15:30:06.868Z,12.05
2019-03-23T15:35:06.146Z,12.02
2019-03-23T15:40:04.875Z,11.99
2019-03-23T15:45:00.884Z,12.10
2019-03-23T15:49:56.812Z,12.00
2019-03-23T15:54:53.581Z,11.88
2019-03-23T15:59:49.560Z,11.82
2019-03-23T16:04:45.567Z,11.74
2019-03-23T16:09:41.608Z,11.88
2019-03-23T16:14:37.634Z,11.94
2019-03-23T16:19:33.601Z,11.91
2019-03-23T16:24:33.305Z,12.02
2019-03-23T16:29:29.203Z,12.00
2019-03-23T16:34:25.158Z,11.95
2019-03-23T16:39:21.092Z,12.04
2019-03-23T16:44:17.012Z,11.95
2019-03-23T16:49:12.923Z,11.79
2019-03-23T16:54:11.872Z,11.66
2019-03-23T16:59:07.990Z,11.64
2019-03-23T17:04:03.955Z,11.52
2019-03-23T17:08:59.964Z,11.41
2019-03-23T17:13:55.991Z,11.39
2019-03-23T17:18:51.945Z,11.55
2019-03-23T17:23:48.013Z,11.52
2019-03-23T17:28:43.928Z,11.59
2019-03-23T17:33:39.848Z,11.55
2019-03-23T17:38:35.817Z,11.32
2019-03-23T17:43:31.731Z,11.32
2019-03-23T17:48:27.670Z,11.26
2019-03-23T17:53:23.601Z,11.26
2019-03-23T17:58:19.567Z,11.23
2019-03-23T18:03:15.555Z,11.28
2019-03-23T18:08:11.476Z,11.35
2019-03-23T18:13:16.185Z,11.36
2019-03-23T18:18:05.326Z,11.12
2019-03-23T18:23:01.248Z,11.23
2019-03-23T18:27:57.268Z,10.85
2019-03-23T18:32:53.291Z,10.72
2019-03-23T18:37:49.212Z,10.68
2019-03-23T18:42:45.152Z,10.74
2019-03-23T18:47:41.082Z,10.81
2019-03-23T18:52:36.994Z,10.72
2019-03-23T18:57:32.914Z,10.78
2019-03-23T19:02:28.909Z,10.60
2019-03-23T19:07:24.858Z,10.64
2019-03-23T19:12:20.812Z,10.18
2019-03-23T19:17:16.885Z,10.11
2019-03-23T19:22:12.813Z,9.90
2019-03-23T19:27:08.740Z,9.79
2019-03-23T19:32:04.676Z,9.82
2019-03-23T19:37:00.642Z,9.74
2019-03-23T19:41:56.555Z,9.55
2019-03-23T19:46:52.562Z,9.58
2019-03-23T19:51:48.553Z,9.62
2019-03-23T19:56:44.477Z,9.38
2019-03-23T20:01:40.478Z,9.40
2019-03-23T20:06:36.476Z,9.42
2019-03-23T20:11:32.536Z,9.54
2019-03-23T20:16:28.655Z,9.48
2019-03-23T20:21:24.601Z,9.50
2019-03-23T20:26:20.533Z,9.41
2019-03-23T20:31:16.473Z,9.49
2019-03-23T20:36:12.387Z,9.40
2019-03-23T20:41:08.369Z,9.34
2019-03-23T20:46:04.389Z,9.18
2019-03-23T20:51:00.737Z,9.08
2019-03-23T20:55:56.668Z,9.10
2019-03-23T21:00:52.690Z,9.03
2019-03-23T21:05:48.656Z,8.94
2019-03-23T21:10:44.596Z,8.83
2019-03-23T21:15:40.743Z,8.83
2019-03-23T21:20:36.662Z,8.76
2019-03-23T21:25:32.594Z,8.71
2019-03-23T21:30:28.532Z,8.66
2019-03-23T21:35:24.447Z,8.47
2019-03-23T21:40:20.438Z,8.31
2019-03-23T21:45:17.160Z,8.24
2019-03-23T21:50:13.178Z,8.20
2019-03-23T21:55:09.470Z,8.03
2019-03-23T22:00:06.449Z,8.00
2019-03-23T22:05:04.282Z,7.93
2019-03-23T22:10:00.353Z,7.85
2019-03-23T22:14:56.899Z,7.81
2019-03-23T22:19:52.848Z,7.74
2019-03-23T22:24:48.792Z,7.66
2019-03-23T22:29:44.704Z,7.63
2019-03-23T22:34:40.623Z,7.60
2019-03-23T22:39:36.543Z,7.55
2019-03-23T22:44:32.455Z,7.46
2019-03-23T22:49:28.394Z,7.44
2019-03-23T22:54:25.030Z,7.45
2019-03-23T22:59:21.146Z,7.46
2019-03-23T23:04:17.083Z,7.38
2019-03-23T23:09:13.122Z,7.33
2019-03-23T23:14:09.039Z,7.23
2019-03-23T23:19:04.952Z,7.20
2019-03-23T23:24:11.888Z,7.12
2019-03-23T23:29:09.720Z,6.92
2019-03-23T23:34:05.631Z,6.95
2019-03-23T23:39:01.645Z,6.95
2019-03-23T23:43:57.658Z,6.86
2019-03-23T23:48:53.577Z,6.69
2019-03-23T23:58:44.512Z,6.62
